createdAt,value
2022-09-01T00:04:03.847Z,17.40
2022-09-01T00:09:10.741Z,17.40
2022-09-01T00:14:30.085Z,17.40
2022-09-01T00:19:34.313Z,17.30
2022-09-01T00:24:38.356Z,17.40
2022-09-01T00:29:43.338Z,17.30
2022-09-01T00:34:46.921Z,17.30
2022-09-01T00:39:51.405Z,17.30
2022-09-01T00:44:54.189Z,17.20
2022-09-01T00:49:57.105Z,17.20
2022-09-01T00:55:07.106Z,17.10
2022-09-01T01:00:14.888Z,17.10
2022-09-01T01:05:17.785Z,17.00
2022-09-01T01:10:23.303Z,17.00
2022-09-01T01:15:26.008Z,17.00
2022-09-01T01:20:34.112Z,17.00
2022-09-01T01:25:41.959Z,17.10
2022-09-01T01:30:47.487Z,17.10
2022-09-01T01:35:50.506Z,17.10
2022-09-01T01:40:54.630Z,17.20
2022-09-01T01:45:58.449Z,17.20
2022-09-01T01:51:02.576Z,17.20
2022-09-01T01:56:07.361Z,17.10
2022-09-01T02:01:09.988Z,17.10
2022-09-01T02:06:12.737Z,17.00
2022-09-01T02:11:17.079Z,17.00
2022-09-01T02:16:19.680Z,17.00
2022-09-01T02:21:25.031Z,17.00
2022-09-01T02:26:32.851Z,17.00
2022-09-01T02:31:37.481Z,17.00
2022-09-01T02:36:41.273Z,17.00
2022-09-01T02:41:47.403Z,17.00
2022-09-01T02:46:53.329Z,17.00
2022-09-01T02:51:58.174Z,16.90
2022-09-01T02:57:02.428Z,16.90
2022-09-01T03:02:05.649Z,16.90
2022-09-01T03:07:08.267Z,16.80
2022-09-01T03:12:12.380Z,16.90
2022-09-01T03:17:14.943Z,16.90
2022-09-01T03:22:17.493Z,16.90
2022-09-01T03:27:21.608Z,16.90
2022-09-01T03:32:24.202Z,16.90
2022-09-01T03:37:26.793Z,16.90
2022-09-01T03:42:32.438Z,16.90
2022-09-01T03:47:35.342Z,17.00
2022-09-01T03:52:38.070Z,17.00
2022-09-01T03:57:42.173Z,17.00
2022-09-01T04:02:45.660Z,17.00
2022-09-01T04:07:53.163Z,17.00
2022-09-01T04:12:57.197Z,17.10
2022-09-01T04:17:59.895Z,17.10
2022-09-01T04:23:02.450Z,17.00
2022-09-01T04:28:07.507Z,17.10
2022-09-01T04:33:10.161Z,17.10
2022-09-01T04:38:13.462Z,17.10
2022-09-01T04:43:17.994Z,17.10
2022-09-01T04:48:21.158Z,17.10
2022-09-01T04:53:28.634Z,17.10
2022-09-01T04:58:33.536Z,17.10
2022-09-01T05:03:36.187Z,17.10
2022-09-01T05:08:38.781Z,17.10
2022-09-01T05:13:42.808Z,17.10
2022-09-01T05:18:48.250Z,17.20
2022-09-01T05:23:51.535Z,17.20
2022-09-01T05:28:59.484Z,17.20
2022-09-01T05:34:02.275Z,17.30
2022-09-01T05:39:07.087Z,17.30
2022-09-01T05:44:12.158Z,17.40
2022-09-01T05:49:14.854Z,17.50
2022-09-01T05:54:19.090Z,17.70
2022-09-01T05:59:24.069Z,18.00
2022-09-01T06:04:28.122Z,18.50
2022-09-01T06:09:30.792Z,18.90
2022-09-01T06:14:34.957Z,19.00
2022-09-01T06:19:37.562Z,19.00
2022-09-01T06:24:40.651Z,19.00
2022-09-01T06:29:48.165Z,18.90
2022-09-01T06:34:51.319Z,18.90
2022-09-01T06:39:55.627Z,19.00
2022-09-01T06:44:59.611Z,19.10
2022-09-01T06:50:02.210Z,19.30
2022-09-01T06:55:07.835Z,19.60
2022-09-01T07:00:15.352Z,19.90
2022-09-01T07:21:41.764Z,20.40
2022-09-01T07:26:47.194Z,20.70
2022-09-01T07:32:43.821Z,21.00
2022-09-01T07:42:59.392Z,21.50
2022-09-01T07:48:03.881Z,22.80
2022-09-01T07:53:06.701Z,23.90
2022-09-01T07:58:09.426Z,25.00
2022-09-01T08:03:14.008Z,25.60
2022-09-01T08:08:21.819Z,26.00
2022-09-01T08:13:27.646Z,26.20
2022-09-01T08:18:50.401Z,26.60
2022-09-01T08:23:55.458Z,27.00
2022-09-01T08:28:58.068Z,27.20
2022-09-01T08:34:02.818Z,27.50
2022-09-01T08:39:05.637Z,27.60
2022-09-01T08:44:19.343Z,27.70
2022-09-01T08:49:26.787Z,27.90
2022-09-01T08:54:41.551Z,27.80
2022-09-01T08:59:44.166Z,27.80
2022-09-01T09:05:00.425Z,28.00
2022-09-01T09:10:10.864Z,28.40
2022-09-01T09:15:21.260Z,28.50
2022-09-01T09:20:26.016Z,28.30
2022-09-01T09:25:29.288Z,28.10
2022-09-01T09:30:32.291Z,28.20
2022-09-01T09:35:38.727Z,28.30
2022-09-01T09:41:15.958Z,28.10
2022-09-01T09:46:27.509Z,27.90
2022-09-01T09:51:31.611Z,27.80
2022-09-01T09:56:34.500Z,27.70
2022-09-01T10:01:38.899Z,27.70
2022-09-01T10:06:45.000Z,27.60
2022-09-01T10:11:52.035Z,27.50
2022-09-01T10:17:01.641Z,27.60
2022-09-01T10:22:10.307Z,27.60
2022-09-01T10:27:17.365Z,27.60
2022-09-01T10:32:37.938Z,27.40
2022-09-01T10:37:48.532Z,27.40
2022-09-01T10:42:52.063Z,27.50
2022-09-01T10:47:54.976Z,27.80
2022-09-01T10:53:08.063Z,28.00
2022-09-01T11:03:57.103Z,27.50
2022-09-01T11:09:05.545Z,27.30
2022-09-01T11:14:19.216Z,27.40
2022-09-01T11:19:37.338Z,27.30
2022-09-01T11:25:00.216Z,27.30
2022-09-01T11:30:10.120Z,27.30
2022-09-01T11:35:17.785Z,27.30
2022-09-01T11:40:32.334Z,27.40
2022-09-01T11:45:45.279Z,27.80
2022-09-01T11:50:59.450Z,28.10
2022-09-01T11:56:16.399Z,27.60
2022-09-01T12:01:21.462Z,27.00
2022-09-01T12:06:26.871Z,26.70
2022-09-01T12:11:32.757Z,26.60
2022-09-01T12:16:37.832Z,26.70
2022-09-01T12:21:42.873Z,26.90
2022-09-01T12:26:48.815Z,27.20
2022-09-01T12:31:53.500Z,27.40
2022-09-01T12:37:10.438Z,27.60
2022-09-01T12:42:25.224Z,27.50
2022-09-01T12:47:51.377Z,27.40
2022-09-01T12:52:55.404Z,27.40
2022-09-01T12:58:01.922Z,27.40
2022-09-01T13:03:13.226Z,27.30
2022-09-01T13:08:18.899Z,27.20
2022-09-01T13:13:24.436Z,26.80
2022-09-01T13:18:28.144Z,26.60
2022-09-01T13:23:30.768Z,26.60
2022-09-01T13:28:37.519Z,26.70
2022-09-01T13:39:05.996Z,26.60
2022-09-01T13:44:10.228Z,26.40
2022-09-01T13:54:35.724Z,26.10
2022-09-01T13:59:39.743Z,25.90
2022-09-01T14:04:42.332Z,25.80
2022-09-01T14:09:45.621Z,25.80
2022-09-01T14:20:15.469Z,25.80
2022-09-01T14:25:19.954Z,25.80
2022-09-01T14:30:30.994Z,25.60
2022-09-01T14:35:34.483Z,25.60
2022-09-01T14:40:38.484Z,25.60
2022-09-01T14:45:44.873Z,25.80
2022-09-01T14:50:49.203Z,25.70
2022-09-01T14:55:55.672Z,25.60
2022-09-01T15:01:17.528Z,25.50
2022-09-01T15:06:24.028Z,25.30
2022-09-01T15:11:26.783Z,25.30
2022-09-01T15:16:30.961Z,25.30
2022-09-01T15:21:34.231Z,25.10
2022-09-01T15:26:37.638Z,25.00
2022-09-01T15:31:43.508Z,25.00
2022-09-01T15:36:46.556Z,25.00
2022-09-01T15:41:49.811Z,25.10
2022-09-01T15:46:54.064Z,25.00
2022-09-01T15:51:57.455Z,24.90
2022-09-01T15:57:00.538Z,24.80
2022-09-01T16:02:05.583Z,24.70
2022-09-01T16:07:08.228Z,24.70
2022-09-01T16:12:10.990Z,24.70
2022-09-01T16:17:23.213Z,24.70
2022-09-01T16:22:30.021Z,24.70
2022-09-01T16:27:33.579Z,24.70
2022-09-01T16:32:45.437Z,24.60
2022-09-01T16:37:56.827Z,24.40
2022-09-01T16:43:06.792Z,24.40
2022-09-01T16:48:18.711Z,24.40
2022-09-01T16:53:36.000Z,24.30
2022-09-01T16:58:47.423Z,24.20
2022-09-01T17:03:57.095Z,24.20
2022-09-01T17:09:10.942Z,24.10
2022-09-01T17:14:21.074Z,23.90
2022-09-01T17:19:29.082Z,23.90
2022-09-01T17:24:37.808Z,23.90
2022-09-01T17:29:43.974Z,23.80
2022-09-01T17:34:54.774Z,23.80
2022-09-01T17:40:06.483Z,23.80
2022-09-01T17:45:20.642Z,23.70
2022-09-01T17:50:39.685Z,23.60
2022-09-01T17:55:49.802Z,23.60
2022-09-01T18:01:01.334Z,23.50
2022-09-01T18:06:09.314Z,23.40
2022-09-01T18:11:16.003Z,23.30
2022-09-01T18:16:22.290Z,23.20
2022-09-01T18:21:33.249Z,23.20
2022-09-01T18:26:40.462Z,23.00
2022-09-01T18:32:06.319Z,22.90
2022-09-01T18:37:18.964Z,22.70
2022-09-01T18:42:30.222Z,22.60
2022-09-01T18:47:34.945Z,22.50
2022-09-01T18:53:09.474Z,22.40
2022-09-01T18:58:23.603Z,22.20
2022-09-01T19:03:33.323Z,22.10
2022-09-01T19:09:02.461Z,22.00
2022-09-01T19:14:16.159Z,21.80
2022-09-01T19:19:30.782Z,21.70
2022-09-01T19:24:42.504Z,21.60
2022-09-01T19:29:49.791Z,21.50
2022-09-01T19:34:56.964Z,21.30
2022-09-01T19:40:02.744Z,21.10
2022-09-01T19:45:13.917Z,20.90
2022-09-01T19:50:22.386Z,20.70
2022-09-01T19:55:32.816Z,20.50
2022-09-01T20:00:44.244Z,20.30
2022-09-01T20:05:53.576Z,20.20
2022-09-01T20:11:02.662Z,20.10
2022-09-01T20:16:14.938Z,20.00
2022-09-01T20:21:21.281Z,19.90
2022-09-01T20:26:32.580Z,19.80
2022-09-01T20:31:39.492Z,19.70
2022-09-01T20:36:48.592Z,19.70
2022-09-01T20:41:58.604Z,19.60
2022-09-01T20:47:01.458Z,19.50
2022-09-01T20:52:14.179Z,19.50
2022-09-01T20:57:36.365Z,19.40
2022-09-01T21:02:46.404Z,19.30
2022-09-01T21:08:00.573Z,19.10
2022-09-01T21:13:16.282Z,18.90
2022-09-01T21:18:35.810Z,18.80
2022-09-01T21:23:38.504Z,18.60
2022-09-01T21:28:47.595Z,18.40
2022-09-01T21:33:51.646Z,18.30
2022-09-01T21:38:54.301Z,18.10
2022-09-01T21:43:58.540Z,18.00
2022-09-01T21:49:01.191Z,17.90
2022-09-01T21:54:03.778Z,17.80
2022-09-01T21:59:07.849Z,17.60
2022-09-01T22:04:10.991Z,17.60
2022-09-01T22:09:21.332Z,17.50
2022-09-01T22:14:25.702Z,17.40
2022-09-01T22:19:28.258Z,17.40
2022-09-01T22:24:31.238Z,17.30
2022-09-01T22:29:35.457Z,17.30
2022-09-01T22:34:38.552Z,17.20
2022-09-01T22:39:46.233Z,17.20
2022-09-01T22:44:50.630Z,17.20
2022-09-01T22:49:55.186Z,17.10
2022-09-01T22:54:58.567Z,17.10
2022-09-01T23:00:06.379Z,17.00
2022-09-01T23:05:09.271Z,17.00
2022-09-01T23:10:12.206Z,17.00
2022-09-01T23:15:16.362Z,16.90
2022-09-01T23:20:19.075Z,16.90
2022-09-01T23:25:21.937Z,16.80
2022-09-01T23:30:25.969Z,16.70
2022-09-01T23:35:29.331Z,16.60
2022-09-01T23:40:31.992Z,16.60
2022-09-01T23:45:40.855Z,16.50
2022-09-01T23:50:45.480Z,16.40
2022-09-01T23:55:52.584Z,16.30
